EFHK/HEL METAR and TAF weather

Enter ICAO airport designator
Station Type Date Time Source
EFHK METAR 2021/09/23 17:50 UTC NOAA

EFHK 231750Z 12019KT 9999 OVC022 09/06 Q0994 BECMG 6000 -RA BKN012


Station Type Date Time Source
EFHK Decoded METAR 2021/09/23 17:50 UTC NOAA

Helsinki-Vantaa, Finland (EFHK) 60-19N 024-58E 56M
Sep 23, 2021 - 01:50 PM EDT / 2021.09.23 1750 UTC
Wind: from the ESE (120 degrees) at 22 MPH (19 KT):0
Visibility: greater than 7 mile(s):0
Sky conditions: overcast
Temperature: 48 F (9 C)
Dew Point: 42 F (6 C)
Relative Humidity: 81%
Pressure (altimeter): 29.35 in. Hg (0994 hPa)
ob: EFHK 231750Z 12019KT 9999 OVC022 09/06 Q0994 BECMG 6000 -RA BKN012
cycle: 18

Station Type Date Time Source
EFHK TAF 2021/09/23 18:42 UTC NOAA

TAF TAF EFHK 231724Z 2318/2418 13015KT 9999 -RA BKN020
BECMG 2318/2319 6000 BKN012
TEMPO 2319/2402 12018G28KT 4000 RA BKN009
TEMPO 2402/2409 3000 -RADZ BKN006
BECMG 2409/2411 09005KT
TEMPO 2411/2418 8000

Example: see airport list